sensor_id;sensor_type;location;lat;lon;timestamp;temperature;humidity
74792;SHT30;63319;46.046;17.802;2023-06-14T00:02:52;24.25;53.18
74792;SHT30;63319;46.046;17.802;2023-06-14T00:05:58;24.24;52.91
74792;SHT30;63319;46.046;17.802;2023-06-14T00:09:01;24.21;53.19
74792;SHT30;63319;46.046;17.802;2023-06-14T00:12:04;24.21;53.30
74792;SHT30;63319;46.046;17.802;2023-06-14T00:15:12;24.24;53.38
74792;SHT30;63319;46.046;17.802;2023-06-14T00:18:15;24.23;53.35
74792;SHT30;63319;46.046;17.802;2023-06-14T00:21:19;24.23;53.22
74792;SHT30;63319;46.046;17.802;2023-06-14T00:24:21;24.21;53.39
74792;SHT30;63319;46.046;17.802;2023-06-14T00:27:25;24.21;53.24
74792;SHT30;63319;46.046;17.802;2023-06-14T00:30:28;24.20;53.36
74792;SHT30;63319;46.046;17.802;2023-06-14T00:33:33;24.20;53.35
74792;SHT30;63319;46.046;17.802;2023-06-14T00:36:36;24.16;53.41
74792;SHT30;63319;46.046;17.802;2023-06-14T00:39:39;24.20;53.43
74792;SHT30;63319;46.046;17.802;2023-06-14T00:42:42;24.18;53.42
74792;SHT30;63319;46.046;17.802;2023-06-14T00:45:45;24.17;53.45
74792;SHT30;63319;46.046;17.802;2023-06-14T00:48:48;24.17;53.39
74792;SHT30;63319;46.046;17.802;2023-06-14T00:51:51;24.16;53.45
74792;SHT30;63319;46.046;17.802;2023-06-14T00:54:54;24.14;53.43
74792;SHT30;63319;46.046;17.802;2023-06-14T00:57:58;24.16;53.51
74792;SHT30;63319;46.046;17.802;2023-06-14T01:01:01;24.17;53.47
74792;SHT30;63319;46.046;17.802;2023-06-14T01:04:04;24.13;53.43
74792;SHT30;63319;46.046;17.802;2023-06-14T01:07:18;24.13;53.62
74792;SHT30;63319;46.046;17.802;2023-06-14T01:14:04;24.09;53.50
74792;SHT30;63319;46.046;17.802;2023-06-14T01:17:08;24.12;53.58
74792;SHT30;63319;46.046;17.802;2023-06-14T01:20:21;24.12;53.57
74792;SHT30;63319;46.046;17.802;2023-06-14T01:23:24;24.07;53.65
74792;SHT30;63319;46.046;17.802;2023-06-14T01:26:28;24.09;53.66
74792;SHT30;63319;46.046;17.802;2023-06-14T01:29:35;24.07;53.55
74792;SHT30;63319;46.046;17.802;2023-06-14T01:32:38;24.06;53.51
74792;SHT30;63319;46.046;17.802;2023-06-14T01:35:46;24.06;53.39
74792;SHT30;63319;46.046;17.802;2023-06-14T01:38:50;24.04;53.62
74792;SHT30;63319;46.046;17.802;2023-06-14T01:41:54;24.04;53.74
74792;SHT30;63319;46.046;17.802;2023-06-14T01:44:58;24.02;53.79
74792;SHT30;63319;46.046;17.802;2023-06-14T01:48:01;24.03;53.64
74792;SHT30;63319;46.046;17.802;2023-06-14T01:51:09;24.00;53.75
74792;SHT30;63319;46.046;17.802;2023-06-14T01:54:12;23.99;53.70
74792;SHT30;63319;46.046;17.802;2023-06-14T01:57:19;24.00;53.79
74792;SHT30;63319;46.046;17.802;2023-06-14T02:00:24;24.00;53.72
74792;SHT30;63319;46.046;17.802;2023-06-14T02:03:34;23.99;53.76
74792;SHT30;63319;46.046;17.802;2023-06-14T02:06:51;23.96;53.67
74792;SHT30;63319;46.046;17.802;2023-06-14T02:09:54;23.96;53.77
74792;SHT30;63319;46.046;17.802;2023-06-14T02:12:58;23.94;53.77
74792;SHT30;63319;46.046;17.802;2023-06-14T02:16:01;23.94;53.73
74792;SHT30;63319;46.046;17.802;2023-06-14T02:19:04;23.94;53.82
74792;SHT30;63319;46.046;17.802;2023-06-14T02:22:07;23.93;53.73
74792;SHT30;63319;46.046;17.802;2023-06-14T02:25:10;23.93;53.78
74792;SHT30;63319;46.046;17.802;2023-06-14T02:28:15;23.90;53.64
74792;SHT30;63319;46.046;17.802;2023-06-14T02:31:22;23.92;53.70
74792;SHT30;63319;46.046;17.802;2023-06-14T02:34:24;23.90;53.73
74792;SHT30;63319;46.046;17.802;2023-06-14T02:37:27;23.89;53.79
74792;SHT30;63319;46.046;17.802;2023-06-14T02:40:30;23.86;53.78
74792;SHT30;63319;46.046;17.802;2023-06-14T02:43:33;23.89;53.88
74792;SHT30;63319;46.046;17.802;2023-06-14T02:46:36;23.87;53.78
74792;SHT30;63319;46.046;17.802;2023-06-14T02:49:39;23.85;53.65
74792;SHT30;63319;46.046;17.802;2023-06-14T02:52:42;23.86;53.80
74792;SHT30;63319;46.046;17.802;2023-06-14T02:55:47;23.85;53.92
74792;SHT30;63319;46.046;17.802;2023-06-14T02:58:51;23.85;53.77
74792;SHT30;63319;46.046;17.802;2023-06-14T03:01:55;23.83;53.79
74792;SHT30;63319;46.046;17.802;2023-06-14T03:04:59;23.82;53.81
74792;SHT30;63319;46.046;17.802;2023-06-14T03:08:05;23.85;53.45
74792;SHT30;63319;46.046;17.802;2023-06-14T03:11:09;23.85;53.65
74792;SHT30;63319;46.046;17.802;2023-06-14T03:14:12;23.82;53.73
74792;SHT30;63319;46.046;17.802;2023-06-14T03:17:17;23.85;53.89
74792;SHT30;63319;46.046;17.802;2023-06-14T03:20:22;23.82;53.83
74792;SHT30;63319;46.046;17.802;2023-06-14T03:23:28;23.82;53.82
74792;SHT30;63319;46.046;17.802;2023-06-14T03:26:31;23.83;53.72
74792;SHT30;63319;46.046;17.802;2023-06-14T03:29:37;23.82;54.44
74792;SHT30;63319;46.046;17.802;2023-06-14T03:32:40;23.83;53.95
74792;SHT30;63319;46.046;17.802;2023-06-14T03:35:43;23.85;53.58
74792;SHT30;63319;46.046;17.802;2023-06-14T03:38:47;23.80;53.36
74792;SHT30;63319;46.046;17.802;2023-06-14T03:41:52;23.82;54.40
74792;SHT30;63319;46.046;17.802;2023-06-14T03:44:55;23.83;54.43
74792;SHT30;63319;46.046;17.802;2023-06-14T03:47:59;23.87;54.45
74792;SHT30;63319;46.046;17.802;2023-06-14T03:51:04;23.83;54.44
74792;SHT30;63319;46.046;17.802;2023-06-14T03:54:07;23.86;54.44
74792;SHT30;63319;46.046;17.802;2023-06-14T03:57:13;23.86;54.42
74792;SHT30;63319;46.046;17.802;2023-06-14T04:00:18;23.89;54.41
74792;SHT30;63319;46.046;17.802;2023-06-14T04:03:21;23.90;54.46
74792;SHT30;63319;46.046;17.802;2023-06-14T04:06:34;23.87;54.44
74792;SHT30;63319;46.046;17.802;2023-06-14T04:09:40;23.92;54.42
74792;SHT30;63319;46.046;17.802;2023-06-14T04:12:49;23.89;54.40
74792;SHT30;63319;46.046;17.802;2023-06-14T04:15:53;23.92;54.42
74792;SHT30;63319;46.046;17.802;2023-06-14T04:19:01;23.93;54.39
74792;SHT30;63319;46.046;17.802;2023-06-14T04:22:04;23.93;54.34
74792;SHT30;63319;46.046;17.802;2023-06-14T04:25:10;23.93;54.34
74792;SHT30;63319;46.046;17.802;2023-06-14T04:28:16;23.93;54.36
74792;SHT30;63319;46.046;17.802;2023-06-14T04:31:21;23.94;54.34
74792;SHT30;63319;46.046;17.802;2023-06-14T04:34:27;23.94;54.23
74792;SHT30;63319;46.046;17.802;2023-06-14T04:37:32;23.97;54.28
74792;SHT30;63319;46.046;17.802;2023-06-14T04:40:36;23.93;54.27
74792;SHT30;63319;46.046;17.802;2023-06-14T04:43:49;23.97;54.27
74792;SHT30;63319;46.046;17.802;2023-06-14T04:46:52;24.00;54.25
74792;SHT30;63319;46.046;17.802;2023-06-14T04:49:57;24.00;54.18
74792;SHT30;63319;46.046;17.802;2023-06-14T04:53:00;24.02;54.11
74792;SHT30;63319;46.046;17.802;2023-06-14T04:56:04;24.04;54.12
74792;SHT30;63319;46.046;17.802;2023-06-14T04:59:09;24.03;54.11
74792;SHT30;63319;46.046;17.802;2023-06-14T05:02:11;24.04;54.03
74792;SHT30;63319;46.046;17.802;2023-06-14T05:05:14;24.04;53.97
74792;SHT30;63319;46.046;17.802;2023-06-14T05:08:20;24.07;53.90
74792;SHT30;63319;46.046;17.802;2023-06-14T05:11:25;24.09;53.07
74792;SHT30;63319;46.046;17.802;2023-06-14T05:14:29;24.10;53.23
74792;SHT30;63319;46.046;17.802;2023-06-14T05:17:33;24.16;53.12
74792;SHT30;63319;46.046;17.802;2023-06-14T05:20:35;24.16;53.49
74792;SHT30;63319;46.046;17.802;2023-06-14T05:23:39;24.17;52.93
74792;SHT30;63319;46.046;17.802;2023-06-14T05:26:42;24.17;52.77
74792;SHT30;63319;46.046;17.802;2023-06-14T05:29:45;24.20;52.80
74792;SHT30;63319;46.046;17.802;2023-06-14T05:32:48;24.21;52.72
74792;SHT30;63319;46.046;17.802;2023-06-14T05:35:51;24.25;53.10
74792;SHT30;63319;46.046;17.802;2023-06-14T05:38:54;24.24;53.36
74792;SHT30;63319;46.046;17.802;2023-06-14T05:42:00;24.30;52.92
74792;SHT30;63319;46.046;17.802;2023-06-14T05:45:03;24.34;52.59
74792;SHT30;63319;46.046;17.802;2023-06-14T05:48:07;24.34;52.35
74792;SHT30;63319;46.046;17.802;2023-06-14T05:51:09;24.40;52.93
74792;SHT30;63319;46.046;17.802;2023-06-14T05:54:12;24.40;53.17
74792;SHT30;63319;46.046;17.802;2023-06-14T05:57:15;24.48;53.18
74792;SHT30;63319;46.046;17.802;2023-06-14T06:00:18;24.51;53.27
74792;SHT30;63319;46.046;17.802;2023-06-14T06:03:22;24.55;53.06
74792;SHT30;63319;46.046;17.802;2023-06-14T06:06:25;24.60;52.87
74792;SHT30;63319;46.046;17.802;2023-06-14T06:09:29;24.54;51.97
74792;SHT30;63319;46.046;17.802;2023-06-14T06:12:32;24.54;50.52
74792;SHT30;63319;46.046;17.802;2023-06-14T06:15:35;24.52;48.83
74792;SHT30;63319;46.046;17.802;2023-06-14T06:18:38;24.51;47.77
74792;SHT30;63319;46.046;17.802;2023-06-14T06:21:41;24.50;47.51
74792;SHT30;63319;46.046;17.802;2023-06-14T06:24:44;24.54;46.17
74792;SHT30;63319;46.046;17.802;2023-06-14T06:27:47;24.52;47.65
74792;SHT30;63319;46.046;17.802;2023-06-14T06:30:51;24.58;46.73
74792;SHT30;63319;46.046;17.802;2023-06-14T06:33:54;24.62;46.06
74792;SHT30;63319;46.046;17.802;2023-06-14T06:36:57;24.65;46.52
74792;SHT30;63319;46.046;17.802;2023-06-14T06:40:00;24.64;46.69
74792;SHT30;63319;46.046;17.802;2023-06-14T06:43:03;24.64;46.55
74792;SHT30;63319;46.046;17.802;2023-06-14T06:46:17;24.65;46.04
74792;SHT30;63319;46.046;17.802;2023-06-14T06:49:28;24.71;46.09
74792;SHT30;63319;46.046;17.802;2023-06-14T06:52:31;24.75;46.00
74792;SHT30;63319;46.046;17.802;2023-06-14T06:55:48;24.79;46.47
74792;SHT30;63319;46.046;17.802;2023-06-14T06:58:55;24.79;46.24
74792;SHT30;63319;46.046;17.802;2023-06-14T07:01:58;24.86;46.18
74792;SHT30;63319;46.046;17.802;2023-06-14T07:05:01;24.89;45.83
74792;SHT30;63319;46.046;17.802;2023-06-14T07:08:05;24.92;46.13
74792;SHT30;63319;46.046;17.802;2023-06-14T07:11:07;24.91;45.58
74792;SHT30;63319;46.046;17.802;2023-06-14T07:14:11;24.92;45.63
74792;SHT30;63319;46.046;17.802;2023-06-14T07:17:13;24.88;45.61
74792;SHT30;63319;46.046;17.802;2023-06-14T07:20:16;24.96;45.72
74792;SHT30;63319;46.046;17.802;2023-06-14T07:23:20;25.05;45.80
74792;SHT30;63319;46.046;17.802;2023-06-14T07:26:23;25.12;45.61
74792;SHT30;63319;46.046;17.802;2023-06-14T07:29:26;25.15;45.55
74792;SHT30;63319;46.046;17.802;2023-06-14T07:32:29;25.22;45.62
74792;SHT30;63319;46.046;17.802;2023-06-14T07:35:32;25.26;45.42
74792;SHT30;63319;46.046;17.802;2023-06-14T07:38:36;25.33;45.61
74792;SHT30;63319;46.046;17.802;2023-06-14T07:41:45;25.41;45.48
74792;SHT30;63319;46.046;17.802;2023-06-14T07:44:48;25.44;45.54
74792;SHT30;63319;46.046;17.802;2023-06-14T07:47:53;25.46;45.20
74792;SHT30;63319;46.046;17.802;2023-06-14T07:50:56;25.54;45.24
74792;SHT30;63319;46.046;17.802;2023-06-14T07:54:03;25.61;45.37
74792;SHT30;63319;46.046;17.802;2023-06-14T07:57:06;25.68;45.05
74792;SHT30;63319;46.046;17.802;2023-06-14T08:00:10;25.71;44.93
74792;SHT30;63319;46.046;17.802;2023-06-14T08:03:17;25.75;44.82
74792;SHT30;63319;46.046;17.802;2023-06-14T08:06:21;25.82;44.85
74792;SHT30;63319;46.046;17.802;2023-06-14T08:09:24;25.85;44.48
74792;SHT30;63319;46.046;17.802;2023-06-14T08:12:27;25.88;44.47
74792;SHT30;63319;46.046;17.802;2023-06-14T08:15:36;25.98;44.29
74792;SHT30;63319;46.046;17.802;2023-06-14T08:18:50;26.05;44.21
74792;SHT30;63319;46.046;17.802;2023-06-14T08:21:53;26.12;44.01
74792;SHT30;63319;46.046;17.802;2023-06-14T08:24:58;26.19;43.82
74792;SHT30;63319;46.046;17.802;2023-06-14T08:28:00;26.22;43.37
74792;SHT30;63319;46.046;17.802;2023-06-14T08:31:03;26.28;43.56
74792;SHT30;63319;46.046;17.802;2023-06-14T08:34:12;26.29;43.42
74792;SHT30;63319;46.046;17.802;2023-06-14T08:37:20;26.35;43.44
74792;SHT30;63319;46.046;17.802;2023-06-14T08:40:23;26.44;40.39
74792;SHT30;63319;46.046;17.802;2023-06-14T08:43:26;26.49;42.36
74792;SHT30;63319;46.046;17.802;2023-06-14T08:46:32;26.59;41.12
74792;SHT30;63319;46.046;17.802;2023-06-14T08:49:37;26.72;41.33
74792;SHT30;63319;46.046;17.802;2023-06-14T08:52:42;26.83;40.48
74792;SHT30;63319;46.046;17.802;2023-06-14T08:55:52;26.90;40.55
74792;SHT30;63319;46.046;17.802;2023-06-14T08:58:57;27.05;40.20
74792;SHT30;63319;46.046;17.802;2023-06-14T09:02:06;27.22;40.44
74792;SHT30;63319;46.046;17.802;2023-06-14T09:05:15;27.32;39.76
74792;SHT30;63319;46.046;17.802;2023-06-14T09:08:20;27.49;39.69
74792;SHT30;63319;46.046;17.802;2023-06-14T09:11:25;27.55;39.41
74792;SHT30;63319;46.046;17.802;2023-06-14T09:14:29;27.53;38.71
74792;SHT30;63319;46.046;17.802;2023-06-14T09:17:32;27.60;37.11
74792;SHT30;63319;46.046;17.802;2023-06-14T09:20:37;27.66;38.33
74792;SHT30;63319;46.046;17.802;2023-06-14T09:23:41;27.74;38.26
74792;SHT30;63319;46.046;17.802;2023-06-14T09:26:47;27.85;38.27
74792;SHT30;63319;46.046;17.802;2023-06-14T09:29:50;27.86;38.27
74792;SHT30;63319;46.046;17.802;2023-06-14T09:32:52;27.89;37.50
74792;SHT30;63319;46.046;17.802;2023-06-14T09:35:55;27.90;37.36
74792;SHT30;63319;46.046;17.802;2023-06-14T09:38:59;27.89;37.31
74792;SHT30;63319;46.046;17.802;2023-06-14T09:42:16;27.92;37.28
74792;SHT30;63319;46.046;17.802;2023-06-14T09:45:20;27.87;37.44
74792;SHT30;63319;46.046;17.802;2023-06-14T09:48:25;28.11;36.92
74792;SHT30;63319;46.046;17.802;2023-06-14T09:51:28;28.14;37.07
74792;SHT30;63319;46.046;17.802;2023-06-14T09:54:39;28.16;36.84
74792;SHT30;63319;46.046;17.802;2023-06-14T09:57:47;28.24;37.20
74792;SHT30;63319;46.046;17.802;2023-06-14T10:00:52;28.18;37.66
74792;SHT30;63319;46.046;17.802;2023-06-14T10:04:04;28.28;36.68
74792;SHT30;63319;46.046;17.802;2023-06-14T10:07:20;28.37;36.65
74792;SHT30;63319;46.046;17.802;2023-06-14T10:10:23;28.37;36.83
74792;SHT30;63319;46.046;17.802;2023-06-14T10:13:28;28.37;37.21
74792;SHT30;63319;46.046;17.802;2023-06-14T10:20:03;28.33;37.11
74792;SHT30;63319;46.046;17.802;2023-06-14T10:23:13;28.61;35.97
74792;SHT30;63319;46.046;17.802;2023-06-14T10:26:23;28.72;35.81
74792;SHT30;63319;46.046;17.802;2023-06-14T10:29:29;28.83;35.69
74792;SHT30;63319;46.046;17.802;2023-06-14T10:32:35;28.72;35.48
74792;SHT30;63319;46.046;17.802;2023-06-14T10:39:25;28.49;35.64
74792;SHT30;63319;46.046;17.802;2023-06-14T10:42:31;28.31;36.21
74792;SHT30;63319;46.046;17.802;2023-06-14T10:45:34;28.52;35.97
74792;SHT30;63319;46.046;17.802;2023-06-14T10:48:41;28.48;35.76
74792;SHT30;63319;46.046;17.802;2023-06-14T10:51:51;28.45;35.80
74792;SHT30;63319;46.046;17.802;2023-06-14T10:55:04;28.08;36.20
74792;SHT30;63319;46.046;17.802;2023-06-14T10:58:09;28.01;36.66
74792;SHT30;63319;46.046;17.802;2023-06-14T11:01:12;28.33;35.88
74792;SHT30;63319;46.046;17.802;2023-06-14T11:04:18;28.52;35.69
74792;SHT30;63319;46.046;17.802;2023-06-14T11:10:42;28.66;34.97
74792;SHT30;63319;46.046;17.802;2023-06-14T11:13:45;28.83;34.84
74792;SHT30;63319;46.046;17.802;2023-06-14T11:16:49;28.89;35.08
74792;SHT30;63319;46.046;17.802;2023-06-14T11:20:08;28.85;34.87
74792;SHT30;63319;46.046;17.802;2023-06-14T11:23:11;28.66;34.77
74792;SHT30;63319;46.046;17.802;2023-06-14T11:26:13;28.64;34.89
74792;SHT30;63319;46.046;17.802;2023-06-14T11:29:16;28.65;34.87
74792;SHT30;63319;46.046;17.802;2023-06-14T11:32:22;28.76;34.61
74792;SHT30;63319;46.046;17.802;2023-06-14T11:35:28;28.61;34.82
74792;SHT30;63319;46.046;17.802;2023-06-14T11:38:35;28.59;34.73
74792;SHT30;63319;46.046;17.802;2023-06-14T11:41:44;28.56;34.55
74792;SHT30;63319;46.046;17.802;2023-06-14T11:44:47;28.54;34.67
74792;SHT30;63319;46.046;17.802;2023-06-14T11:47:50;28.49;34.72
74792;SHT30;63319;46.046;17.802;2023-06-14T11:50:53;28.35;35.40
74792;SHT30;63319;46.046;17.802;2023-06-14T11:54:00;28.34;35.94
74792;SHT30;63319;46.046;17.802;2023-06-14T11:57:09;28.16;36.01
74792;SHT30;63319;46.046;17.802;2023-06-14T12:00:13;28.01;36.59
74792;SHT30;63319;46.046;17.802;2023-06-14T12:03:22;27.92;39.99
74792;SHT30;63319;46.046;17.802;2023-06-14T12:06:27;27.98;39.38
74792;SHT30;63319;46.046;17.802;2023-06-14T12:09:36;27.94;40.08
74792;SHT30;63319;46.046;17.802;2023-06-14T12:12:39;27.83;42.90
74792;SHT30;63319;46.046;17.802;2023-06-14T12:15:42;27.85;42.90
74792;SHT30;63319;46.046;17.802;2023-06-14T12:18:46;27.77;43.04
74792;SHT30;63319;46.046;17.802;2023-06-14T12:21:48;27.69;42.75
74792;SHT30;63319;46.046;17.802;2023-06-14T12:24:52;27.73;42.45
74792;SHT30;63319;46.046;17.802;2023-06-14T12:27:55;27.65;41.01
74792;SHT30;63319;46.046;17.802;2023-06-14T12:30:58;27.58;41.07
74792;SHT30;63319;46.046;17.802;2023-06-14T12:34:02;27.53;40.54
74792;SHT30;63319;46.046;17.802;2023-06-14T12:37:09;27.48;40.58
74792;SHT30;63319;46.046;17.802;2023-06-14T12:40:13;27.46;41.70
74792;SHT30;63319;46.046;17.802;2023-06-14T12:43:16;27.46;41.89
74792;SHT30;63319;46.046;17.802;2023-06-14T12:46:21;27.41;42.01
74792;SHT30;63319;46.046;17.802;2023-06-14T12:49:24;27.32;41.96
74792;SHT30;63319;46.046;17.802;2023-06-14T12:52:28;27.34;42.00
74792;SHT30;63319;46.046;17.802;2023-06-14T12:55:34;27.25;42.08
74792;SHT30;63319;46.046;17.802;2023-06-14T12:58:37;27.24;42.07
74792;SHT30;63319;46.046;17.802;2023-06-14T13:01:40;27.20;42.11
74792;SHT30;63319;46.046;17.802;2023-06-14T13:04:43;27.21;42.10
74792;SHT30;63319;46.046;17.802;2023-06-14T13:07:50;27.16;42.09
74792;SHT30;63319;46.046;17.802;2023-06-14T13:10:53;27.14;42.08
74792;SHT30;63319;46.046;17.802;2023-06-14T13:13:56;27.07;42.24
74792;SHT30;63319;46.046;17.802;2023-06-14T13:16:59;27.07;42.43
74792;SHT30;63319;46.046;17.802;2023-06-14T13:20:02;27.07;42.30
74792;SHT30;63319;46.046;17.802;2023-06-14T13:23:05;27.01;42.50
74792;SHT30;63319;46.046;17.802;2023-06-14T13:26:09;27.01;42.53
74792;SHT30;63319;46.046;17.802;2023-06-14T13:29:12;27.00;42.61
74792;SHT30;63319;46.046;17.802;2023-06-14T13:32:15;26.93;42.64
74792;SHT30;63319;46.046;17.802;2023-06-14T13:35:19;26.93;42.75
74792;SHT30;63319;46.046;17.802;2023-06-14T13:38:22;26.88;42.88
74792;SHT30;63319;46.046;17.802;2023-06-14T13:41:26;26.86;43.22
74792;SHT30;63319;46.046;17.802;2023-06-14T13:44:34;26.80;43.37
74792;SHT30;63319;46.046;17.802;2023-06-14T13:47:37;26.79;43.11
74792;SHT30;63319;46.046;17.802;2023-06-14T13:50:40;26.77;43.14
74792;SHT30;63319;46.046;17.802;2023-06-14T13:53:46;26.70;43.37
74792;SHT30;63319;46.046;17.802;2023-06-14T13:56:48;26.69;43.31
74792;SHT30;63319;46.046;17.802;2023-06-14T13:59:52;26.65;43.32
74792;SHT30;63319;46.046;17.802;2023-06-14T14:02:58;26.63;43.46
74792;SHT30;63319;46.046;17.802;2023-06-14T14:06:03;26.64;43.39
74792;SHT30;63319;46.046;17.802;2023-06-14T14:09:07;26.64;43.35
74792;SHT30;63319;46.046;17.802;2023-06-14T14:12:10;26.64;43.39
74792;SHT30;63319;46.046;17.802;2023-06-14T14:15:13;26.63;43.44
74792;SHT30;63319;46.046;17.802;2023-06-14T14:18:17;26.61;43.63
74792;SHT30;63319;46.046;17.802;2023-06-14T14:21:20;26.54;43.63
74792;SHT30;63319;46.046;17.802;2023-06-14T14:24:23;26.57;43.72
74792;SHT30;63319;46.046;17.802;2023-06-14T14:27:26;26.53;43.76
74792;SHT30;63319;46.046;17.802;2023-06-14T14:30:29;26.49;43.71
74792;SHT30;63319;46.046;17.802;2023-06-14T14:33:32;26.49;43.83
74792;SHT30;63319;46.046;17.802;2023-06-14T14:36:38;26.49;43.87
74792;SHT30;63319;46.046;17.802;2023-06-14T14:39:45;26.47;43.84
74792;SHT30;63319;46.046;17.802;2023-06-14T14:42:48;26.46;43.93
74792;SHT30;63319;46.046;17.802;2023-06-14T14:45:51;26.43;43.98
74792;SHT30;63319;46.046;17.802;2023-06-14T14:48:54;26.42;44.00
74792;SHT30;63319;46.046;17.802;2023-06-14T14:51:56;26.42;43.92
74792;SHT30;63319;46.046;17.802;2023-06-14T14:55:16;26.43;43.96
74792;SHT30;63319;46.046;17.802;2023-06-14T14:58:19;26.42;44.04
74792;SHT30;63319;46.046;17.802;2023-06-14T15:01:22;26.39;44.07
74792;SHT30;63319;46.046;17.802;2023-06-14T15:04:25;26.39;44.12
74792;SHT30;63319;46.046;17.802;2023-06-14T15:07:28;26.36;44.16
74792;SHT30;63319;46.046;17.802;2023-06-14T15:10:31;26.32;44.23
74792;SHT30;63319;46.046;17.802;2023-06-14T15:13:33;26.28;44.29
74792;SHT30;63319;46.046;17.802;2023-06-14T15:16:37;26.28;44.31
74792;SHT30;63319;46.046;17.802;2023-06-14T15:19:40;26.24;44.46
74792;SHT30;63319;46.046;17.802;2023-06-14T15:22:42;26.22;44.50
74792;SHT30;63319;46.046;17.802;2023-06-14T15:25:52;26.24;44.56
74792;SHT30;63319;46.046;17.802;2023-06-14T15:28:58;26.21;44.56
74792;SHT30;63319;46.046;17.802;2023-06-14T15:32:07;26.21;44.69
74792;SHT30;63319;46.046;17.802;2023-06-14T15:35:10;26.22;44.71
74792;SHT30;63319;46.046;17.802;2023-06-14T15:38:14;26.22;44.63
74792;SHT30;63319;46.046;17.802;2023-06-14T15:41:17;26.18;44.71
74792;SHT30;63319;46.046;17.802;2023-06-14T15:44:20;26.16;44.71
74792;SHT30;63319;46.046;17.802;2023-06-14T15:47:23;26.16;44.74
74792;SHT30;63319;46.046;17.802;2023-06-14T15:50:26;26.15;44.84
74792;SHT30;63319;46.046;17.802;2023-06-14T15:53:29;26.12;44.91
74792;SHT30;63319;46.046;17.802;2023-06-14T15:56:32;26.14;44.98
74792;SHT30;63319;46.046;17.802;2023-06-14T15:59:35;26.11;44.90
74792;SHT30;63319;46.046;17.802;2023-06-14T16:02:38;26.08;45.03
74792;SHT30;63319;46.046;17.802;2023-06-14T16:05:41;26.06;45.00
74792;SHT30;63319;46.046;17.802;2023-06-14T16:08:45;26.06;45.04
74792;SHT30;63319;46.046;17.802;2023-06-14T16:11:48;26.05;45.11
74792;SHT30;63319;46.046;17.802;2023-06-14T16:14:51;26.05;45.13
74792;SHT30;63319;46.046;17.802;2023-06-14T16:17:54;26.04;45.16
74792;SHT30;63319;46.046;17.802;2023-06-14T16:20:57;26.05;45.17
74792;SHT30;63319;46.046;17.802;2023-06-14T16:24:00;26.02;45.28
74792;SHT30;63319;46.046;17.802;2023-06-14T16:27:03;26.01;45.34
74792;SHT30;63319;46.046;17.802;2023-06-14T16:30:09;25.96;45.33
74792;SHT30;63319;46.046;17.802;2023-06-14T16:33:12;25.96;45.43
74792;SHT30;63319;46.046;17.802;2023-06-14T16:36:14;25.96;45.50
74792;SHT30;63319;46.046;17.802;2023-06-14T16:39:17;25.94;45.54
74792;SHT30;63319;46.046;17.802;2023-06-14T16:42:20;25.94;45.64
74792;SHT30;63319;46.046;17.802;2023-06-14T16:45:23;25.91;45.60
74792;SHT30;63319;46.046;17.802;2023-06-14T16:48:26;25.91;45.75
74792;SHT30;63319;46.046;17.802;2023-06-14T16:51:29;25.87;45.74
74792;SHT30;63319;46.046;17.802;2023-06-14T16:54:31;25.85;45.71
74792;SHT30;63319;46.046;17.802;2023-06-14T16:57:34;25.85;45.86
74792;SHT30;63319;46.046;17.802;2023-06-14T17:00:37;25.82;45.88
74792;SHT30;63319;46.046;17.802;2023-06-14T17:03:40;25.81;45.98
74792;SHT30;63319;46.046;17.802;2023-06-14T17:06:43;25.81;45.95
74792;SHT30;63319;46.046;17.802;2023-06-14T17:09:46;25.80;45.96
74792;SHT30;63319;46.046;17.802;2023-06-14T17:12:49;25.78;46.02
74792;SHT30;63319;46.046;17.802;2023-06-14T17:15:52;25.77;46.06
74792;SHT30;63319;46.046;17.802;2023-06-14T17:18:54;25.74;46.12
74792;SHT30;63319;46.046;17.802;2023-06-14T17:21:57;25.75;46.09
74792;SHT30;63319;46.046;17.802;2023-06-14T17:25:00;25.75;46.14
74792;SHT30;63319;46.046;17.802;2023-06-14T17:28:03;25.73;46.18
74792;SHT30;63319;46.046;17.802;2023-06-14T17:31:06;25.71;46.20
74792;SHT30;63319;46.046;17.802;2023-06-14T17:34:10;25.71;46.30
74792;SHT30;63319;46.046;17.802;2023-06-14T17:37:13;25.73;46.27
74792;SHT30;63319;46.046;17.802;2023-06-14T17:40:16;25.73;46.38
74792;SHT30;63319;46.046;17.802;2023-06-14T17:43:19;25.68;46.31
74792;SHT30;63319;46.046;17.802;2023-06-14T17:46:24;25.70;46.39
74792;SHT30;63319;46.046;17.802;2023-06-14T17:49:27;25.70;46.40
74792;SHT30;63319;46.046;17.802;2023-06-14T17:52:31;25.71;46.39
74792;SHT30;63319;46.046;17.802;2023-06-14T17:55:33;25.67;46.37
74792;SHT30;63319;46.046;17.802;2023-06-14T17:58:36;25.70;46.47
74792;SHT30;63319;46.046;17.802;2023-06-14T18:01:39;25.70;46.52
74792;SHT30;63319;46.046;17.802;2023-06-14T18:04:43;25.66;46.56
74792;SHT30;63319;46.046;17.802;2023-06-14T18:07:47;25.67;46.57
74792;SHT30;63319;46.046;17.802;2023-06-14T18:10:50;25.63;46.70
74792;SHT30;63319;46.046;17.802;2023-06-14T18:13:53;25.63;46.72
74792;SHT30;63319;46.046;17.802;2023-06-14T18:16:57;25.60;46.78
74792;SHT30;63319;46.046;17.802;2023-06-14T18:20:02;25.61;46.87
74792;SHT30;63319;46.046;17.802;2023-06-14T18:23:06;25.57;46.93
74792;SHT30;63319;46.046;17.802;2023-06-14T18:26:13;25.57;47.02
74792;SHT30;63319;46.046;17.802;2023-06-14T18:29:17;25.54;47.01
74792;SHT30;63319;46.046;17.802;2023-06-14T18:32:23;25.53;47.01
74792;SHT30;63319;46.046;17.802;2023-06-14T18:35:27;25.53;47.22
74792;SHT30;63319;46.046;17.802;2023-06-14T18:38:32;25.50;47.16
74792;SHT30;63319;46.046;17.802;2023-06-14T18:41:35;25.48;47.22
74792;SHT30;63319;46.046;17.802;2023-06-14T18:44:39;25.46;47.23
74792;SHT30;63319;46.046;17.802;2023-06-14T18:47:43;25.44;47.31
74792;SHT30;63319;46.046;17.802;2023-06-14T18:50:47;25.44;47.32
74792;SHT30;63319;46.046;17.802;2023-06-14T18:53:51;25.41;47.41
74792;SHT30;63319;46.046;17.802;2023-06-14T18:56:55;25.40;47.39
74792;SHT30;63319;46.046;17.802;2023-06-14T18:59:59;25.36;47.51
74792;SHT30;63319;46.046;17.802;2023-06-14T19:03:03;25.36;47.54
74792;SHT30;63319;46.046;17.802;2023-06-14T19:06:07;25.36;47.52
74792;SHT30;63319;46.046;17.802;2023-06-14T19:09:11;25.34;47.67
74792;SHT30;63319;46.046;17.802;2023-06-14T19:12:17;25.31;47.62
74792;SHT30;63319;46.046;17.802;2023-06-14T19:15:22;25.31;47.69
74792;SHT30;63319;46.046;17.802;2023-06-14T19:18:26;25.29;47.71
74792;SHT30;63319;46.046;17.802;2023-06-14T19:21:30;25.27;47.86